createdAt,value
2022-08-18T00:02:07.653Z,18.70
2022-08-18T00:04:49.170Z,18.72
2022-08-18T00:07:24.451Z,18.71
2022-08-18T00:09:51.698Z,18.73
2022-08-18T00:12:23.436Z,18.68
2022-08-18T00:14:50.924Z,18.66
2022-08-18T00:17:18.504Z,18.59
2022-08-18T00:19:48.197Z,18.59
2022-08-18T00:22:18.944Z,18.60
2022-08-18T00:24:49.227Z,18.58
2022-08-18T00:27:42.870Z,18.68
2022-08-18T00:30:13.793Z,18.72
2022-08-18T00:32:44.026Z,18.73
2022-08-18T00:35:23.948Z,18.72
2022-08-18T00:37:50.984Z,18.61
2022-08-18T00:40:21.114Z,18.44
2022-08-18T00:42:52.605Z,18.35
2022-08-18T00:45:24.093Z,18.28
2022-08-18T00:47:51.239Z,18.25
2022-08-18T00:50:26.605Z,18.19
2022-08-18T00:52:59.307Z,18.18
2022-08-18T00:55:29.715Z,18.20
2022-08-18T00:58:03.662Z,18.18
2022-08-18T01:00:30.565Z,18.11
2022-08-18T01:03:02.055Z,18.03
2022-08-18T01:05:45.854Z,18.10
2022-08-18T01:08:15.699Z,18.17
2022-08-18T01:10:45.325Z,18.21
2022-08-18T01:13:12.142Z,18.26
2022-08-18T01:15:38.843Z,18.30
2022-08-18T01:18:32.651Z,18.31
2022-08-18T01:21:41.021Z,18.37
2022-08-18T01:24:13.019Z,18.40
2022-08-18T01:26:49.990Z,18.41
2022-08-18T01:29:19.455Z,18.34
2022-08-18T01:31:56.411Z,18.30
2022-08-18T01:34:28.324Z,18.30
2022-08-18T01:36:56.730Z,18.26
2022-08-18T01:41:25.164Z,18.34
2022-08-18T01:42:12.019Z,18.37
2022-08-18T01:44:41.704Z,18.38
2022-08-18T01:47:10.772Z,18.37
2022-08-18T01:49:39.131Z,18.38
2022-08-18T01:52:07.406Z,18.34
2022-08-18T01:54:34.379Z,18.34
2022-08-18T01:57:01.939Z,18.25
2022-08-18T01:59:28.644Z,18.18
2022-08-18T02:01:55.825Z,18.21
2022-08-18T02:04:36.516Z,18.23
2022-08-18T02:07:07.825Z,18.23
2022-08-18T02:09:37.658Z,18.20
2022-08-18T02:12:05.975Z,18.10
2022-08-18T02:14:34.012Z,18.07
2022-08-18T02:17:02.907Z,18.07
2022-08-18T02:19:46.898Z,18.12
2022-08-18T02:22:19.162Z,18.17
2022-08-18T02:24:46.268Z,18.14
2022-08-18T02:27:14.568Z,18.08
2022-08-18T02:29:41.494Z,18.09
2022-08-18T02:32:08.801Z,18.06
2022-08-18T02:34:35.886Z,18.01
2022-08-18T02:37:03.411Z,18.03
2022-08-18T02:39:30.717Z,18.07
2022-08-18T02:41:57.511Z,18.12
2022-08-18T02:44:24.235Z,18.08
2022-08-18T02:46:54.715Z,18.10
2022-08-18T02:49:21.459Z,18.13
2022-08-18T02:51:48.308Z,18.16
2022-08-18T02:54:15.090Z,17.97
2022-08-18T02:56:42.590Z,17.79
2022-08-18T02:59:15.320Z,17.77
2022-08-18T03:01:46.869Z,17.77
2022-08-18T03:04:16.030Z,17.69
2022-08-18T03:06:43.203Z,17.65
2022-08-18T03:09:11.849Z,17.66
2022-08-18T03:11:38.777Z,17.73
2022-08-18T03:14:07.441Z,17.78
2022-08-18T03:16:40.520Z,17.80
2022-08-18T03:19:20.259Z,17.79
2022-08-18T03:21:48.012Z,17.80
2022-08-18T03:24:19.710Z,17.78
2022-08-18T03:26:54.524Z,17.77
2022-08-18T03:29:22.016Z,17.81
2022-08-18T03:31:49.804Z,17.76
2022-08-18T03:34:21.941Z,17.73
2022-08-18T03:36:51.265Z,17.65
2022-08-18T03:39:19.557Z,17.63
2022-08-18T03:41:58.001Z,17.64
2022-08-18T03:44:33.435Z,17.61
2022-08-18T03:47:03.188Z,17.62
2022-08-18T03:49:31.113Z,17.61
2022-08-18T03:52:00.925Z,17.49
2022-08-18T03:54:28.686Z,17.40
2022-08-18T03:56:55.969Z,17.32
2022-08-18T03:59:24.873Z,17.27
2022-08-18T04:01:54.020Z,17.28
2022-08-18T04:04:24.824Z,17.22
2022-08-18T04:06:54.486Z,17.21
2022-08-18T04:09:24.606Z,17.20
2022-08-18T04:11:52.292Z,17.24
2022-08-18T04:14:21.487Z,17.23
2022-08-18T04:16:49.269Z,17.24
2022-08-18T04:19:26.792Z,17.20
2022-08-18T04:21:56.588Z,17.22
2022-08-18T04:24:24.114Z,17.23
2022-08-18T04:26:51.811Z,17.25
2022-08-18T04:29:21.380Z,17.21
2022-08-18T04:31:50.460Z,17.21
2022-08-18T04:34:18.434Z,17.25
2022-08-18T04:36:45.432Z,17.28
2022-08-18T04:39:13.716Z,17.30
2022-08-18T04:41:43.571Z,17.32
2022-08-18T04:44:11.752Z,17.34
2022-08-18T04:46:41.762Z,17.38
2022-08-18T04:49:10.608Z,17.40
2022-08-18T04:52:36.138Z,17.42
2022-08-18T04:54:29.403Z,17.46
2022-08-18T04:56:56.082Z,17.41
2022-08-18T04:59:22.881Z,17.48
2022-08-18T05:01:49.544Z,17.55
2022-08-18T05:04:17.709Z,17.59
2022-08-18T05:06:45.932Z,17.60
2022-08-18T05:09:16.547Z,17.60
2022-08-18T05:11:47.103Z,17.77
2022-08-18T05:14:14.715Z,17.90
2022-08-18T05:16:48.121Z,18.00
2022-08-18T05:19:23.113Z,18.06
2022-08-18T05:21:51.417Z,18.04
2022-08-18T05:24:20.839Z,18.01
2022-08-18T05:26:49.098Z,17.90
2022-08-18T05:29:18.520Z,17.73
2022-08-18T05:31:47.189Z,17.60
2022-08-18T05:34:14.058Z,17.58
2022-08-18T05:36:50.412Z,17.52
2022-08-18T05:39:54.224Z,17.52
2022-08-18T05:42:23.107Z,17.61
2022-08-18T05:44:51.757Z,17.72
2022-08-18T05:47:30.337Z,17.78
2022-08-18T05:50:05.701Z,17.74
2022-08-18T05:52:47.735Z,17.75
2022-08-18T05:55:34.940Z,17.80
2022-08-18T05:58:06.288Z,17.89
2022-08-18T06:00:33.572Z,17.95
2022-08-18T06:03:11.495Z,17.98
2022-08-18T06:05:49.157Z,18.03
2022-08-18T06:08:17.394Z,18.15
2022-08-18T06:10:48.607Z,18.31
2022-08-18T06:13:15.684Z,18.49
2022-08-18T06:16:10.750Z,18.51
2022-08-18T06:18:43.138Z,18.45
2022-08-18T06:21:36.884Z,18.43
2022-08-18T06:24:20.832Z,18.44
2022-08-18T06:27:03.718Z,18.43
2022-08-18T06:30:07.604Z,18.55
2022-08-18T06:32:56.840Z,18.58
2022-08-18T06:35:37.579Z,18.51
2022-08-18T06:38:35.370Z,18.47
2022-08-18T06:41:42.215Z,18.38
2022-08-18T06:44:33.808Z,18.50
2022-08-18T06:47:04.342Z,18.60
2022-08-18T06:50:05.803Z,18.61
2022-08-18T06:52:39.756Z,18.75
2022-08-18T06:55:16.943Z,18.79
2022-08-18T06:57:57.771Z,18.83
2022-08-18T07:00:27.733Z,18.83
2022-08-18T07:03:13.034Z,18.83
2022-08-18T07:06:02.303Z,18.79
2022-08-18T07:08:31.872Z,18.79
2022-08-18T07:11:20.357Z,18.80
2022-08-18T07:14:03.577Z,18.79
2022-08-18T07:19:29.273Z,18.82
2022-08-18T07:22:14.761Z,18.87
2022-08-18T07:24:46.942Z,18.90
2022-08-18T07:27:19.659Z,18.81
2022-08-18T07:30:08.951Z,18.91
2022-08-18T07:32:49.784Z,18.99
2022-08-18T07:35:24.240Z,19.09
2022-08-18T07:37:53.983Z,19.04
2022-08-18T07:40:42.096Z,19.09
2022-08-18T07:43:14.757Z,19.25
2022-08-18T07:45:44.740Z,19.31
2022-08-18T07:48:38.556Z,19.32
2022-08-18T07:51:33.903Z,19.37
2022-08-18T07:54:25.197Z,19.43
2022-08-18T07:57:26.159Z,19.42
2022-08-18T08:00:35.472Z,19.42
2022-08-18T08:03:37.648Z,19.37
2022-08-18T08:06:08.695Z,19.35
2022-08-18T08:08:44.131Z,19.39
2022-08-18T08:11:37.919Z,19.47
2022-08-18T08:14:13.376Z,19.53
2022-08-18T08:16:50.241Z,19.60
2022-08-18T08:20:00.396Z,19.61
2022-08-18T08:22:44.156Z,19.57
2022-08-18T08:25:42.898Z,19.46
2022-08-18T08:28:24.960Z,19.43
2022-08-18T08:31:33.115Z,19.44
2022-08-18T08:34:18.542Z,19.48
2022-08-18T08:36:47.343Z,19.51
2022-08-18T08:39:16.831Z,19.61
2022-08-18T08:42:30.438Z,19.68
2022-08-18T08:45:09.115Z,19.87
2022-08-18T08:48:09.388Z,19.93
2022-08-18T08:50:50.281Z,19.97
2022-08-18T08:53:26.348Z,19.95
2022-08-18T08:56:03.106Z,20.01
2022-08-18T08:58:44.439Z,20.27
2022-08-18T09:01:20.981Z,20.50
2022-08-18T09:04:01.493Z,20.66
2022-08-18T09:06:47.802Z,20.75
2022-08-18T09:09:42.567Z,20.78
2022-08-18T09:12:32.443Z,21.08
2022-08-18T09:15:04.009Z,21.54
2022-08-18T09:17:58.602Z,21.71
2022-08-18T09:20:37.993Z,21.67
2022-08-18T09:23:12.420Z,21.79
2022-08-18T09:25:42.163Z,21.91
2022-08-18T09:28:17.193Z,22.00
2022-08-18T09:31:02.747Z,21.94
2022-08-18T09:33:44.471Z,21.82
2022-08-18T09:36:35.951Z,21.78
2022-08-18T09:39:50.284Z,21.81
2022-08-18T09:42:50.720Z,21.99
2022-08-18T09:45:33.300Z,22.19
2022-08-18T09:48:25.515Z,22.22
2022-08-18T09:50:58.020Z,22.35
2022-08-18T09:53:46.438Z,22.34
2022-08-18T09:56:15.736Z,22.42
2022-08-18T09:59:01.129Z,22.52
2022-08-18T10:01:38.306Z,22.47
2022-08-18T10:04:21.678Z,22.45
2022-08-18T10:06:49.587Z,22.40
2022-08-18T10:09:44.067Z,22.41
2022-08-18T10:12:40.576Z,22.28
2022-08-18T10:15:34.072Z,22.20
2022-08-18T10:18:29.450Z,22.19
2022-08-18T10:24:36.865Z,22.34
2022-08-18T10:27:08.996Z,22.38
2022-08-18T10:29:49.505Z,22.38
2022-08-18T10:32:16.440Z,22.66
2022-08-18T10:34:52.119Z,22.77
2022-08-18T10:37:32.239Z,23.00
2022-08-18T10:40:15.507Z,23.24
2022-08-18T10:42:54.095Z,23.63
2022-08-18T10:45:29.032Z,24.04
2022-08-18T10:48:05.009Z,24.40
2022-08-18T10:50:50.263Z,24.39
2022-08-18T10:56:50.379Z,24.54
2022-08-18T10:59:50.510Z,24.65
2022-08-18T11:02:38.109Z,25.10
2022-08-18T11:08:02.232Z,25.43
2022-08-18T11:11:06.661Z,25.75
2022-08-18T11:14:03.050Z,25.92
2022-08-18T11:16:37.929Z,25.86
2022-08-18T11:19:14.721Z,25.80
2022-08-18T11:21:46.348Z,25.80
2022-08-18T11:24:27.420Z,26.05
2022-08-18T11:27:02.240Z,25.84
2022-08-18T11:29:38.272Z,25.70
2022-08-18T11:32:12.063Z,25.98
2022-08-18T11:34:51.979Z,26.24
2022-08-18T11:37:54.179Z,26.20
2022-08-18T11:43:21.303Z,26.37
2022-08-18T11:45:58.258Z,26.55
2022-08-18T11:48:51.911Z,26.33
2022-08-18T11:51:32.821Z,26.31
2022-08-18T11:54:21.967Z,26.67
2022-08-18T11:56:50.438Z,26.69
2022-08-18T11:59:52.826Z,26.52
2022-08-18T12:02:18.256Z,26.47
2022-08-18T12:04:53.122Z,26.29
2022-08-18T12:07:57.570Z,26.76
2022-08-18T12:10:29.373Z,27.34
2022-08-18T12:13:00.405Z,27.19
2022-08-18T12:15:46.583Z,26.64
2022-08-18T12:18:18.693Z,26.28
2022-08-18T12:20:53.381Z,26.68
2022-08-18T12:23:20.083Z,26.34
2022-08-18T12:25:48.138Z,25.93
2022-08-18T12:28:19.419Z,25.94
2022-08-18T12:30:48.966Z,26.69
2022-08-18T12:33:25.431Z,26.93
2022-08-18T12:35:52.724Z,26.34
2022-08-18T12:38:19.402Z,25.85
2022-08-18T12:40:46.159Z,25.94
2022-08-18T12:43:13.089Z,26.41
2022-08-18T12:45:41.488Z,26.67
2022-08-18T12:48:09.247Z,27.00
2022-08-18T12:50:49.674Z,26.97
2022-08-18T12:53:17.260Z,26.32
2022-08-18T12:55:45.605Z,25.89
2022-08-18T12:58:12.662Z,25.61
2022-08-18T13:00:41.043Z,25.66
2022-08-18T13:03:08.464Z,25.93
2022-08-18T13:05:36.166Z,26.37
2022-08-18T13:08:06.432Z,26.23
2022-08-18T13:10:43.202Z,25.87
2022-08-18T13:13:15.534Z,25.58
2022-08-18T13:15:44.274Z,25.73
2022-08-18T13:18:28.633Z,26.11
2022-08-18T13:20:58.532Z,26.40
2022-08-18T13:23:27.517Z,26.37
2022-08-18T13:26:01.709Z,26.39
2022-08-18T13:28:30.847Z,26.50
2022-08-18T13:31:05.420Z,26.52
2022-08-18T13:33:53.555Z,26.60
2022-08-18T13:36:20.201Z,26.68
2022-08-18T13:38:54.655Z,26.66
2022-08-18T13:41:23.234Z,26.70
2022-08-18T13:43:50.224Z,26.65
2022-08-18T13:46:19.726Z,26.37
2022-08-18T13:48:59.956Z,26.15
2022-08-18T13:51:27.870Z,25.85
2022-08-18T13:54:17.867Z,25.73
2022-08-18T13:56:42.964Z,25.63
2022-08-18T13:59:21.633Z,25.70
2022-08-18T14:01:52.951Z,25.92
2022-08-18T14:04:22.868Z,26.10
2022-08-18T14:06:57.383Z,26.17
2022-08-18T14:09:37.212Z,26.06
2022-08-18T14:12:15.322Z,25.86
2022-08-18T14:14:49.350Z,25.57
2022-08-18T14:17:19.561Z,25.44
2022-08-18T14:20:04.900Z,25.45
2022-08-18T14:22:55.748Z,25.44
2022-08-18T14:25:41.010Z,25.44
2022-08-18T14:28:09.255Z,25.49
2022-08-18T14:30:39.517Z,25.47
2022-08-18T14:33:11.604Z,25.44
2022-08-18T14:36:06.745Z,25.47
2022-08-18T14:38:25.182Z,25.28
2022-08-18T14:40:52.107Z,25.22
2022-08-18T14:43:24.985Z,25.19
2022-08-18T14:45:53.759Z,25.14
2022-08-18T14:48:27.514Z,25.18
2022-08-18T14:50:56.252Z,25.15
2022-08-18T14:53:26.513Z,25.05
2022-08-18T14:55:53.651Z,25.03
2022-08-18T14:58:21.854Z,25.01
2022-08-18T15:00:54.066Z,24.91
2022-08-18T15:03:31.105Z,24.81
2022-08-18T15:06:00.533Z,24.71
2022-08-18T15:08:28.265Z,24.70
2022-08-18T15:10:55.522Z,24.68
2022-08-18T15:13:26.512Z,24.62
2022-08-18T15:15:55.906Z,24.59
2022-08-18T15:18:29.384Z,24.58
2022-08-18T15:21:19.520Z,24.54
2022-08-18T15:24:22.138Z,24.46
2022-08-18T15:26:57.867Z,24.45
2022-08-18T15:29:30.552Z,24.40
2022-08-18T15:32:05.554Z,24.40
2022-08-18T15:34:46.466Z,24.33
2022-08-18T15:37:15.958Z,24.19
2022-08-18T15:39:55.534Z,24.13
2022-08-18T15:42:23.682Z,24.10
2022-08-18T15:44:52.711Z,23.95
2022-08-18T15:47:21.261Z,23.87
2022-08-18T15:49:48.490Z,23.80
2022-08-18T15:52:17.639Z,23.72
2022-08-18T15:54:48.029Z,23.67
2022-08-18T15:57:38.446Z,23.62
2022-08-18T16:00:06.228Z,23.57
2022-08-18T16:02:39.294Z,23.47
2022-08-18T16:05:10.335Z,23.43
2022-08-18T16:07:41.280Z,23.34
2022-08-18T16:10:21.285Z,23.26
2022-08-18T16:12:49.106Z,23.26
2022-08-18T16:15:19.812Z,23.25
2022-08-18T16:17:49.615Z,23.19
2022-08-18T16:20:18.653Z,23.15
2022-08-18T16:22:46.913Z,23.12
2022-08-18T16:25:14.451Z,23.11
2022-08-18T16:27:41.840Z,23.11
2022-08-18T16:30:11.301Z,23.05
2022-08-18T16:32:38.078Z,23.00
2022-08-18T16:35:06.226Z,22.99
2022-08-18T16:37:33.099Z,22.99
2022-08-18T16:39:59.858Z,22.92
2022-08-18T16:42:32.170Z,22.90
2022-08-18T16:44:59.775Z,22.86
2022-08-18T16:47:27.034Z,22.86
2022-08-18T16:49:58.649Z,22.81
2022-08-18T16:52:25.605Z,22.77
2022-08-18T16:54:57.829Z,22.77
2022-08-18T16:57:54.116Z,22.75
2022-08-18T17:00:42.558Z,22.74
2022-08-18T17:03:28.760Z,22.72
2022-08-18T17:06:05.027Z,22.72
2022-08-18T17:08:34.177Z,22.70
2022-08-18T17:11:02.228Z,22.66
2022-08-18T17:13:29.733Z,22.63
2022-08-18T17:15:56.659Z,22.61
2022-08-18T17:18:24.503Z,22.60
2022-08-18T17:20:51.977Z,22.60
2022-08-18T17:23:21.046Z,22.62
2022-08-18T17:25:48.751Z,22.62
2022-08-18T17:28:24.830Z,22.60
2022-08-18T17:30:53.322Z,22.57
2022-08-18T17:33:26.862Z,22.52
2022-08-18T17:35:56.374Z,22.47
2022-08-18T17:38:41.007Z,22.46
2022-08-18T17:41:07.766Z,22.38
2022-08-18T17:46:19.513Z,22.32
2022-08-18T17:49:11.082Z,22.32
2022-08-18T17:51:56.491Z,22.27
2022-08-18T17:54:29.821Z,22.23
2022-08-18T17:57:04.392Z,22.22
2022-08-18T18:00:15.432Z,22.22
2022-08-18T18:02:48.197Z,22.17
2022-08-18T18:05:19.315Z,22.15
2022-08-18T18:07:52.028Z,22.10
2022-08-18T18:10:28.274Z,22.12
2022-08-18T18:13:13.177Z,22.05
2022-08-18T18:16:08.490Z,22.03
2022-08-18T18:18:41.880Z,22.04
2022-08-18T18:21:53.467Z,22.02
2022-08-18T18:24:15.316Z,21.99
2022-08-18T18:26:48.437Z,22.00
2022-08-18T18:29:20.299Z,21.97
2022-08-18T18:32:04.511Z,21.96
2022-08-18T18:35:00.632Z,21.96
2022-08-18T18:37:33.137Z,21.91
2022-08-18T18:40:04.319Z,21.87
2022-08-18T18:42:33.530Z,21.82
2022-08-18T18:45:09.361Z,21.76
2022-08-18T18:48:00.484Z,21.74
2022-08-18T18:50:55.769Z,21.69
2022-08-18T18:53:30.062Z,21.62
2022-08-18T18:56:18.898Z,21.60
2022-08-18T18:59:03.224Z,21.58
2022-08-18T19:01:50.871Z,21.55
2022-08-18T19:04:27.809Z,21.57
2022-08-18T19:06:58.421Z,21.53
2022-08-18T19:09:48.518Z,21.52
2022-08-18T19:12:29.692Z,21.48
2022-08-18T19:15:04.723Z,21.44
2022-08-18T19:17:45.995Z,21.41
2022-08-18T19:20:39.123Z,21.42
2022-08-18T19:23:44.420Z,21.40
2022-08-18T19:26:17.412Z,21.37
2022-08-18T19:29:08.917Z,21.32
2022-08-18T19:31:49.102Z,21.28
2022-08-18T19:34:22.738Z,21.27
2022-08-18T19:37:01.161Z,21.24
2022-08-18T19:39:48.469Z,21.23
2022-08-18T19:42:24.712Z,21.21
2022-08-18T19:45:17.639Z,21.18
2022-08-18T19:47:55.665Z,21.14
2022-08-18T19:50:22.258Z,21.13
2022-08-18T19:53:20.543Z,21.09
2022-08-18T19:56:05.615Z,21.08
2022-08-18T19:59:11.486Z,21.01
2022-08-18T20:01:50.522Z,20.95
2022-08-18T20:04:35.597Z,20.91
2022-08-18T20:07:46.767Z,20.95
2022-08-18T20:10:31.710Z,20.90
2022-08-18T20:13:10.750Z,20.91
2022-08-18T20:16:02.435Z,20.90
2022-08-18T20:18:35.933Z,20.88
2022-08-18T20:21:11.602Z,20.88
2022-08-18T20:23:56.776Z,20.92
2022-08-18T20:26:38.645Z,20.94
2022-08-18T20:29:13.520Z,20.93
2022-08-18T20:31:49.921Z,20.90
2022-08-18T20:34:22.701Z,20.85
2022-08-18T20:36:51.535Z,20.79
2022-08-18T20:39:42.759Z,20.79
2022-08-18T20:42:42.450Z,20.79
2022-08-18T20:45:33.463Z,20.79
2022-08-18T20:48:26.456Z,20.76
2022-08-18T20:51:02.969Z,20.74
2022-08-18T20:54:01.549Z,20.70
2022-08-18T20:56:43.887Z,20.68
2022-08-18T20:59:13.743Z,20.66
2022-08-18T21:01:40.566Z,20.63
2022-08-18T21:04:08.057Z,20.67
2022-08-18T21:06:42.150Z,20.73
2022-08-18T21:09:10.473Z,20.68
2022-08-18T21:11:43.816Z,20.59
2022-08-18T21:14:12.984Z,20.55
2022-08-18T21:16:45.170Z,20.47
2022-08-18T21:19:18.435Z,20.52
2022-08-18T21:21:49.873Z,20.53
2022-08-18T21:24:38.816Z,20.50
2022-08-18T21:27:10.654Z,20.51
2022-08-18T21:29:44.317Z,20.46
2022-08-18T21:32:31.528Z,20.44
2022-08-18T21:35:05.733Z,20.43
2022-08-18T21:37:40.311Z,20.45
2022-08-18T21:40:07.909Z,20.47
2022-08-18T21:42:42.856Z,20.46
2022-08-18T21:45:18.683Z,20.48
2022-08-18T21:47:57.626Z,20.46
2022-08-18T21:50:32.918Z,20.41
2022-08-18T21:53:16.278Z,20.42
2022-08-18T21:55:46.281Z,20.36
2022-08-18T21:58:16.750Z,20.32
2022-08-18T22:01:08.354Z,20.22
2022-08-18T22:03:36.663Z,20.18
2022-08-18T22:06:28.342Z,20.17
2022-08-18T22:09:33.038Z,20.18
2022-08-18T22:12:54.848Z,20.19
2022-08-18T22:15:26.702Z,20.16
2022-08-18T22:17:55.884Z,20.07
2022-08-18T22:20:44.215Z,19.97
2022-08-18T22:23:32.879Z,19.95
2022-08-18T22:26:14.956Z,19.90
2022-08-18T22:29:05.980Z,19.88
2022-08-18T22:31:38.924Z,19.82
2022-08-18T22:34:09.591Z,19.73
2022-08-18T22:36:42.258Z,19.68
2022-08-18T22:39:12.371Z,19.67
2022-08-18T22:41:41.100Z,19.62
2022-08-18T22:44:08.975Z,19.60
2022-08-18T22:46:37.069Z,19.52
2022-08-18T22:49:05.134Z,19.44
2022-08-18T22:51:33.744Z,19.40
2022-08-18T22:54:00.774Z,19.32
2022-08-18T22:56:34.509Z,19.30
2022-08-18T22:59:16.100Z,19.32
2022-08-18T23:01:49.179Z,19.30
2022-08-18T23:04:19.386Z,19.25
2022-08-18T23:06:52.256Z,19.22
2022-08-18T23:09:21.834Z,19.22
2022-08-18T23:11:48.877Z,19.18
2022-08-18T23:14:16.091Z,19.11
2022-08-18T23:16:47.274Z,19.01
2022-08-18T23:19:19.432Z,18.92
2022-08-18T23:21:48.477Z,18.91
2022-08-18T23:24:17.351Z,18.91
2022-08-18T23:26:44.448Z,18.91
2022-08-18T23:29:12.851Z,18.89
2022-08-18T23:31:42.137Z,18.94
2022-08-18T23:34:11.977Z,18.96
2022-08-18T23:36:43.654Z,18.88
2022-08-18T23:39:12.685Z,18.78
2022-08-18T23:41:39.415Z,18.78
2022-08-18T23:44:06.725Z,18.72
2022-08-18T23:46:33.870Z,18.67
2022-08-18T23:49:03.561Z,18.67
2022-08-18T23:51:33.363Z,18.64
2022-08-18T23:54:06.888Z,18.61
2022-08-18T23:56:34.918Z,18.61
2022-08-18T23:59:02.928Z,18.62
